Time;durP1;ratioP1;P1;durP2;ratioP2;P2;SDS_P1;SDS_P2;PMS_P1;PMS_P2;Temp;Humidity;BMP_temperature;BMP_pressure;BME280_temperature;BME280_humidity;BME280_pressure;Samples;Min_cycle;Max_cycle;Signal;HPM_P1;HPM_P2
2020/05/19 00:00:24;;;;;;;7.550001;6.85;;;;;;;10.12;66.87891;95656.87;;;;
2020/05/19 00:01:38;;;;;;;7.550001;6.85;;;;;;;10.12;66.87891;95656.87;;;;
2020/05/19 00:02:41;;;;;;;7.550001;6.85;;;;;;;10.12;66.87891;95656.87;;;;
2020/05/19 00:04:54;;;;;;;7.550001;6.85;;;;;;;10.12;66.87891;95656.87;;;;
2020/05/19 00:06:01;;;;;;;7.900001;7.1;;;;;;;9.95;67.18457;95653.49;;;;
2020/05/19 00:07:05;;;;;;;7.900001;7.1;;;;;;;9.95;67.18457;95653.49;;;;
2020/05/19 00:08:06;;;;;;;7.900001;7.1;;;;;;;9.95;67.18457;95653.49;;;;
2020/05/19 00:09:10;;;;;;;7.900001;7.1;;;;;;;9.95;67.18457;95653.49;;;;
2020/05/19 00:10:10;;;;;;;7.900001;7.1;;;;;;;9.95;67.18457;95653.49;;;;
2020/05/19 00:11:11;;;;;;;7.900001;7.1;;;;;;;9.95;67.18457;95653.49;;;;
2020/05/19 00:12:12;;;;;;;7.900001;7.1;;;;;;;9.95;67.18457;95653.49;;;;
2020/05/19 00:13:12;;;;;;;7.900001;7.1;;;;;;;9.95;67.18457;95653.49;;;;
2020/05/19 00:20:20;;;;;;;7.5;6.8;;;;;;;9.83;67.58398;95652.48;;;;
2020/05/19 00:36:59;;;;;;;7.6;6.900001;;;;;;;9.58;68.19727;95654.37;;;;
2020/05/19 00:38:01;;;;;;;7.6;6.900001;;;;;;;9.58;68.19727;95654.37;;;;
2020/05/19 00:39:02;;;;;;;7.6;6.900001;;;;;;;9.58;68.19727;95654.37;;;;
2020/05/19 00:40:04;;;;;;;7.6;6.900001;;;;;;;9.58;68.19727;95654.37;;;;
2020/05/19 00:41:10;;;;;;;7.6;6.900001;;;;;;;9.58;68.19727;95654.37;;;;
2020/05/19 00:42:20;;;;;;;7.6;6.900001;;;;;;;9.58;68.19727;95654.37;;;;
2020/05/19 00:43:31;;;;;;;7.6;6.900001;;;;;;;9.58;68.19727;95654.37;;;;
2020/05/19 00:44:43;;;;;;;7.6;6.900001;;;;;;;9.58;68.19727;95654.37;;;;
2020/05/19 00:45:52;;;;;;;7.6;6.900001;;;;;;;9.58;68.19727;95654.37;;;;
2020/05/19 00:46:58;;;;;;;7.65;7;;;;;;;9.42;68.38672;95644.65;;;;
2020/05/19 00:48:02;;;;;;;7.65;7;;;;;;;9.42;68.38672;95644.65;;;;
2020/05/19 00:49:03;;;;;;;7.65;7;;;;;;;9.42;68.38672;95644.65;;;;
2020/05/19 00:50:04;;;;;;;7.65;7;;;;;;;9.42;68.38672;95644.65;;;;
2020/05/19 00:51:21;;;;;;;7.65;7;;;;;;;9.42;68.38672;95644.65;;;;
2020/05/19 00:52:22;;;;;;;7.65;7;;;;;;;9.42;68.38672;95644.65;;;;
2020/05/19 00:58:33;;;;;;;7.55;6.849999;;;;;;;9.34;68.88574;95644.9;;;;
2020/05/19 00:59:34;;;;;;;7.55;6.849999;;;;;;;9.34;68.88574;95644.9;;;;
2020/05/19 01:00:35;;;;;;;7.55;6.849999;;;;;;;9.34;68.88574;95644.9;;;;
2020/05/19 01:06:55;;;;;;;7.55;6.849999;;;;;;;9.34;68.88574;95644.9;;;;
2020/05/19 01:12:29;;;;;;;7.5;6.799999;;;;;;;9.25;69.03125;95635.44;;;;
2020/05/19 01:13:43;;;;;;;7.5;6.799999;;;;;;;9.25;69.03125;95635.44;;;;
2020/05/19 01:15:30;;;;;;;7.5;6.799999;;;;;;;9.25;69.03125;95635.44;;;;
2020/05/19 01:16:58;;;;;;;7.5;6.799999;;;;;;;9.25;69.03125;95635.44;;;;
2020/05/19 01:17:59;;;;;;;7.5;6.799999;;;;;;;9.25;69.03125;95635.44;;;;
2020/05/19 01:18:59;;;;;;;7.6;6.950001;;;;;;;9.18;69.11719;95627.01;;;;
2020/05/19 01:20:00;;;;;;;7.6;6.950001;;;;;;;9.18;69.11719;95627.01;;;;
2020/05/19 01:21:01;;;;;;;7.6;6.950001;;;;;;;9.18;69.11719;95627.01;;;;
2020/05/19 01:22:01;;;;;;;7.6;6.950001;;;;;;;9.18;69.11719;95627.01;;;;
2020/05/19 01:23:02;;;;;;;7.6;6.950001;;;;;;;9.18;69.11719;95627.01;;;;
2020/05/19 01:24:02;;;;;;;7.6;6.950001;;;;;;;9.18;69.11719;95627.01;;;;
2020/05/19 01:25:03;;;;;;;7.6;6.950001;;;;;;;9.18;69.11719;95627.01;;;;
2020/05/19 01:26:06;;;;;;;7.6;6.950001;;;;;;;9.18;69.11719;95627.01;;;;
2020/05/19 01:27:08;;;;;;;7.6;6.950001;;;;;;;9.18;69.11719;95627.01;;;;
2020/05/19 01:28:10;;;;;;;7.6;6.950001;;;;;;;9.18;69.11719;95627.01;;;;
2020/05/19 01:29:11;;;;;;;8.700001;7.4;;;;;;;8.98;69.42773;95615.55;;;;
2020/05/19 01:30:17;;;;;;;8.700001;7.4;;;;;;;8.98;69.42773;95615.55;;;;
2020/05/19 01:31:29;;;;;;;8.700001;7.4;;;;;;;8.98;69.42773;95615.55;;;;
2020/05/19 01:32:40;;;;;;;8.700001;7.4;;;;;;;8.98;69.42773;95615.55;;;;
2020/05/19 01:34:06;;;;;;;8.700001;7.4;;;;;;;8.98;69.42773;95615.55;;;;
2020/05/19 01:35:13;;;;;;;8.700001;7.4;;;;;;;8.98;69.42773;95615.55;;;;
2020/05/19 01:36:14;;;;;;;8.700001;7.4;;;;;;;8.98;69.42773;95615.55;;;;
2020/05/19 01:37:15;;;;;;;8.700001;7.4;;;;;;;8.98;69.42773;95615.55;;;;
2020/05/19 01:38:16;;;;;;;8.700001;7.4;;;;;;;8.98;69.42773;95615.55;;;;
2020/05/19 01:39:16;;;;;;;8.700001;7.4;;;;;;;8.98;69.42773;95615.55;;;;
2020/05/19 01:40:16;;;;;;;8.700001;7.4;;;;;;;8.98;69.42773;95615.55;;;;
2020/05/19 01:41:17;;;;;;;8.700001;7.4;;;;;;;8.98;69.42773;95615.55;;;;
2020/05/19 01:42:18;;;;;;;8.700001;7.4;;;;;;;8.98;69.42773;95615.55;;;;
2020/05/19 01:43:18;;;;;;;8.700001;7.4;;;;;;;8.98;69.42773;95615.55;;;;
2020/05/19 01:44:19;;;;;;;8.700001;7.4;;;;;;;8.98;69.42773;95615.55;;;;
2020/05/19 01:45:19;;;;;;;8.700001;7.4;;;;;;;8.98;69.42773;95615.55;;;;
2020/05/19 01:46:20;;;;;;;8.700001;7.4;;;;;;;8.98;69.42773;95615.55;;;;
2020/05/19 01:47:20;;;;;;;8.700001;7.4;;;;;;;8.98;69.42773;95615.55;;;;
2020/05/19 01:48:21;;;;;;;8.700001;7.4;;;;;;;8.98;69.42773;95615.55;;;;
2020/05/19 01:49:21;;;;;;;8.700001;7.4;;;;;;;8.98;69.42773;95615.55;;;;
2020/05/19 01:50:22;;;;;;;8.700001;7.4;;;;;;;8.98;69.42773;95615.55;;;;
2020/05/19 01:51:22;;;;;;;7.749999;7.149999;;;;;;;8.82;69.64746;95605.3;;;;
2020/05/19 01:52:23;;;;;;;7.749999;7.149999;;;;;;;8.82;69.64746;95605.3;;;;
2020/05/19 01:53:23;;;;;;;7.749999;7.149999;;;;;;;8.82;69.64746;95605.3;;;;
2020/05/19 01:54:24;;;;;;;7.749999;7.149999;;;;;;;8.82;69.64746;95605.3;;;;
2020/05/19 01:55:25;;;;;;;7.749999;7.149999;;;;;;;8.82;69.64746;95605.3;;;;
2020/05/19 01:56:25;;;;;;;7.749999;7.149999;;;;;;;8.82;69.64746;95605.3;;;;
2020/05/19 01:57:26;;;;;;;7.749999;7.149999;;;;;;;8.82;69.64746;95605.3;;;;
2020/05/19 01:58:26;;;;;;;7.749999;7.149999;;;;;;;8.82;69.64746;95605.3;;;;
2020/05/19 01:59:35;;;;;;;7.749999;7.149999;;;;;;;8.82;69.64746;95605.3;;;;
2020/05/19 02:06:05;;;;;;;8.25;7.45;;;;;;;8.71;70.15137;95605.98;;;;
2020/05/19 02:07:15;;;;;;;8.25;7.45;;;;;;;8.71;70.15137;95605.98;;;;
2020/05/19 02:08:24;;;;;;;8.25;7.45;;;;;;;8.71;70.15137;95605.98;;;;
2020/05/19 02:09:27;;;;;;;8.25;7.45;;;;;;;8.71;70.15137;95605.98;;;;
2020/05/19 02:10:28;;;;;;;8.25;7.45;;;;;;;8.71;70.15137;95605.98;;;;
2020/05/19 02:11:29;;;;;;;8.25;7.45;;;;;;;8.71;70.15137;95605.98;;;;
2020/05/19 02:12:29;;;;;;;7.9;7.249999;;;;;;;8.58;70.6123;95602.85;;;;
2020/05/19 02:13:30;;;;;;;7.9;7.249999;;;;;;;8.58;70.6123;95602.85;;;;
2020/05/19 02:14:30;;;;;;;7.9;7.249999;;;;;;;8.58;70.6123;95602.85;;;;
2020/05/19 02:15:31;;;;;;;7.9;7.249999;;;;;;;8.58;70.6123;95602.85;;;;
2020/05/19 02:16:33;;;;;;;7.9;7.249999;;;;;;;8.58;70.6123;95602.85;;;;
2020/05/19 02:17:36;;;;;;;7.9;7.249999;;;;;;;8.58;70.6123;95602.85;;;;
2020/05/19 02:18:38;;;;;;;7.9;7.249999;;;;;;;8.58;70.6123;95602.85;;;;
2020/05/19 02:19:39;;;;;;;7.9;7.249999;;;;;;;8.58;70.6123;95602.85;;;;
2020/05/19 02:20:39;;;;;;;7.9;7.249999;;;;;;;8.58;70.6123;95602.85;;;;
2020/05/19 02:21:40;;;;;;;7.9;7.249999;;;;;;;8.58;70.6123;95602.85;;;;
2020/05/19 02:22:40;;;;;;;7.9;7.249999;;;;;;;8.58;70.6123;95602.85;;;;
2020/05/19 02:23:41;;;;;;;7.9;7.249999;;;;;;;8.58;70.6123;95602.85;;;;
2020/05/19 02:24:41;;;;;;;7.9;7.249999;;;;;;;8.58;70.6123;95602.85;;;;
2020/05/19 02:25:42;;;;;;;7.9;7.249999;;;;;;;8.58;70.6123;95602.85;;;;
2020/05/19 02:26:42;;;;;;;7.9;7.249999;;;;;;;8.58;70.6123;95602.85;;;;
2020/05/19 02:27:42;;;;;;;7.9;7.249999;;;;;;;8.58;70.6123;95602.85;;;;
2020/05/19 02:28:43;;;;;;;7.9;7.249999;;;;;;;8.58;70.6123;95602.85;;;;
2020/05/19 02:29:43;;;;;;;7.9;7.249999;;;;;;;8.58;70.6123;95602.85;;;;
2020/05/19 02:30:44;;;;;;;7.9;7.249999;;;;;;;8.58;70.6123;95602.85;;;;
2020/05/19 02:31:44;;;;;;;7.9;7.249999;;;;;;;8.58;70.6123;95602.85;;;;
2020/05/19 02:32:45;;;;;;;7.9;7.249999;;;;;;;8.58;70.6123;95602.85;;;;
2020/05/19 02:33:45;;;;;;;8.65;7.8;;;;;;;8.46;70.79492;95587.51;;;;
2020/05/19 02:34:46;;;;;;;8.65;7.8;;;;;;;8.46;70.79492;95587.51;;;;
2020/05/19 02:35:47;;;;;;;8.65;7.8;;;;;;;8.46;70.79492;95587.51;;;;
2020/05/19 02:37:03;;;;;;;8.65;7.8;;;;;;;8.46;70.79492;95587.51;;;;
2020/05/19 02:39:16;;;;;;;8.65;7.8;;;;;;;8.46;70.79492;95587.51;;;;
2020/05/19 02:40:17;;;;;;;8.65;7.8;;;;;;;8.46;70.79492;95587.51;;;;
2020/05/19 02:41:19;;;;;;;8.65;7.8;;;;;;;8.46;70.79492;95587.51;;;;
2020/05/19 02:42:20;;;;;;;8.65;7.8;;;;;;;8.46;70.79492;95587.51;;;;
2020/05/19 02:43:20;;;;;;;8.65;7.8;;;;;;;8.46;70.79492;95587.51;;;;
2020/05/19 02:44:21;;;;;;;7.6;6.950001;;;;;;;8.38;71.50684;95578.75;;;;
2020/05/19 02:45:21;;;;;;;7.6;6.950001;;;;;;;8.38;71.50684;95578.75;;;;
2020/05/19 02:46:22;;;;;;;7.6;6.950001;;;;;;;8.38;71.50684;95578.75;;;;
2020/05/19 02:47:31;;;;;;;7.6;6.950001;;;;;;;8.38;71.50684;95578.75;;;;
2020/05/19 02:48:42;;;;;;;7.6;6.950001;;;;;;;8.38;71.50684;95578.75;;;;
2020/05/19 02:49:52;;;;;;;7.6;6.950001;;;;;;;8.38;71.50684;95578.75;;;;
2020/05/19 02:51:14;;;;;;;7.6;6.950001;;;;;;;8.38;71.50684;95578.75;;;;
2020/05/19 02:53:04;;;;;;;7.6;6.950001;;;;;;;8.38;71.50684;95578.75;;;;
2020/05/19 02:54:22;;;;;;;7.6;6.950001;;;;;;;8.38;71.50684;95578.75;;;;
2020/05/19 03:12:11;;;;;;;8.15;7.45;;;;;;;8.27;72.21094;95571.47;;;;
2020/05/19 03:13:25;;;;;;;8.15;7.45;;;;;;;8.27;72.21094;95571.47;;;;
2020/05/19 03:14:30;;;;;;;8.15;7.45;;;;;;;8.27;72.21094;95571.47;;;;
2020/05/19 03:15:32;;;;;;;8.15;7.45;;;;;;;8.27;72.21094;95571.47;;;;
2020/05/19 03:16:36;;;;;;;8.050001;7.200001;;;;;;;8.19;72.2627;95570.75;;;;
2020/05/19 03:17:40;;;;;;;8.050001;7.200001;;;;;;;8.19;72.2627;95570.75;;;;
2020/05/19 03:18:40;;;;;;;8.050001;7.200001;;;;;;;8.19;72.2627;95570.75;;;;
2020/05/19 03:19:40;;;;;;;8.050001;7.200001;;;;;;;8.19;72.2627;95570.75;;;;
2020/05/19 03:20:41;;;;;;;8.050001;7.200001;;;;;;;8.19;72.2627;95570.75;;;;
2020/05/19 03:21:41;;;;;;;8.050001;7.200001;;;;;;;8.19;72.2627;95570.75;;;;
2020/05/19 03:22:42;;;;;;;8.050001;7.200001;;;;;;;8.19;72.2627;95570.75;;;;
2020/05/19 03:23:42;;;;;;;8.050001;7.200001;;;;;;;8.19;72.2627;95570.75;;;;
2020/05/19 03:24:42;;;;;;;8.050001;7.200001;;;;;;;8.19;72.2627;95570.75;;;;
2020/05/19 03:25:43;;;;;;;8.050001;7.200001;;;;;;;8.19;72.2627;95570.75;;;;
2020/05/19 03:26:43;;;;;;;8.15;7.349999;;;;;;;8.15;72.47949;95571.69;;;;
2020/05/19 03:27:44;;;;;;;8.15;7.349999;;;;;;;8.15;72.47949;95571.69;;;;
2020/05/19 03:28:44;;;;;;;8.15;7.349999;;;;;;;8.15;72.47949;95571.69;;;;
2020/05/19 03:29:45;;;;;;;8.15;7.349999;;;;;;;8.15;72.47949;95571.69;;;;
2020/05/19 03:30:46;;;;;;;8.15;7.349999;;;;;;;8.15;72.47949;95571.69;;;;
2020/05/19 03:31:46;;;;;;;8.15;7.349999;;;;;;;8.15;72.47949;95571.69;;;;
2020/05/19 03:32:46;;;;;;;8.15;7.349999;;;;;;;8.15;72.47949;95571.69;;;;
2020/05/19 03:33:47;;;;;;;8.15;7.349999;;;;;;;8.15;72.47949;95571.69;;;;
2020/05/19 03:34:57;;;;;;;8.15;7.349999;;;;;;;8.15;72.47949;95571.69;;;;
2020/05/19 03:36:02;;;;;;;8.15;7.349999;;;;;;;8.15;72.47949;95571.69;;;;
2020/05/19 03:37:04;;;;;;;8.000002;7.2;;;;;;;8.07;72.74219;95574.73;;;;
2020/05/19 03:38:14;;;;;;;8.000002;7.2;;;;;;;8.07;72.74219;95574.73;;;;
2020/05/19 03:39:24;;;;;;;8.000002;7.2;;;;;;;8.07;72.74219;95574.73;;;;
2020/05/19 03:40:47;;;;;;;8.000002;7.2;;;;;;;8.07;72.74219;95574.73;;;;
2020/05/19 03:42:15;;;;;;;8.000002;7.2;;;;;;;8.07;72.74219;95574.73;;;;
2020/05/19 03:43:40;;;;;;;8.000002;7.2;;;;;;;8.07;72.74219;95574.73;;;;
2020/05/19 03:44:50;;;;;;;8.000002;7.2;;;;;;;8.07;72.74219;95574.73;;;;
2020/05/19 03:45:59;;;;;;;8.000002;7.2;;;;;;;8.07;72.74219;95574.73;;;;
2020/05/19 03:47:08;;;;;;;8.000002;7.2;;;;;;;8.07;72.74219;95574.73;;;;
2020/05/19 03:54:03;;;;;;;8.2;7.45;;;;;;;8.11;73.17578;95576.79;;;;
2020/05/19 03:55:50;;;;;;;8.2;7.45;;;;;;;8.11;73.17578;95576.79;;;;
2020/05/19 03:57:18;;;;;;;8.2;7.45;;;;;;;8.11;73.17578;95576.79;;;;
2020/05/19 04:08:54;;;;;;;8.550001;7.65;;;;;;;8.15;73.28906;95571.69;;;;
2020/05/19 04:15:46;;;;;;;8.3;7.650001;;;;;;;8.3;73.63379;95570.11;;;;
2020/05/19 04:17:09;;;;;;;8.3;7.650001;;;;;;;8.3;73.63379;95570.11;;;;
2020/05/19 04:18:37;;;;;;;8.3;7.650001;;;;;;;8.3;73.63379;95570.11;;;;
2020/05/19 04:19:59;;;;;;;8.05;7.349999;;;;;;;8.39;73.70313;95561.67;;;;
2020/05/19 04:41:55;;;;;;;8.6;7.799999;;;;;;;8.74;74.06934;95570.58;;;;
2020/05/19 04:48:44;;;;;;;8.6;7.799999;;;;;;;8.74;74.06934;95570.58;;;;
2020/05/19 04:50:29;;;;;;;8.6;7.799999;;;;;;;8.74;74.06934;95570.58;;;;
2020/05/19 04:52:00;;;;;;;9.25;8.349999;;;;;;;9.06;74.2002;95584.74;;;;
2020/05/19 04:58:34;;;;;;;9.25;8.349999;;;;;;;9.06;74.2002;95584.74;;;;
2020/05/19 04:59:35;;;;;;;9.25;8.349999;;;;;;;9.06;74.2002;95584.74;;;;
2020/05/19 05:00:37;;;;;;;9.25;8.349999;;;;;;;9.06;74.2002;95584.74;;;;
2020/05/19 05:01:42;;;;;;;9.25;8.349999;;;;;;;9.06;74.2002;95584.74;;;;
2020/05/19 05:02:43;;;;;;;9.05;8.249999;;;;;;;9.42;74.27148;95572.3;;;;
2020/05/19 05:03:43;;;;;;;9.05;8.249999;;;;;;;9.42;74.27148;95572.3;;;;
2020/05/19 05:04:44;;;;;;;9.05;8.249999;;;;;;;9.42;74.27148;95572.3;;;;
2020/05/19 05:05:44;;;;;;;9.05;8.249999;;;;;;;9.42;74.27148;95572.3;;;;
2020/05/19 05:06:44;;;;;;;9.05;8.249999;;;;;;;9.42;74.27148;95572.3;;;;
2020/05/19 05:07:45;;;;;;;9.05;8.249999;;;;;;;9.42;74.27148;95572.3;;;;
2020/05/19 05:08:45;;;;;;;9.05;8.249999;;;;;;;9.42;74.27148;95572.3;;;;
2020/05/19 05:09:46;;;;;;;9.05;8.249999;;;;;;;9.42;74.27148;95572.3;;;;
2020/05/19 05:10:47;;;;;;;9.05;8.249999;;;;;;;9.42;74.27148;95572.3;;;;
2020/05/19 05:11:47;;;;;;;9.05;8.249999;;;;;;;9.42;74.27148;95572.3;;;;
2020/05/19 05:12:47;;;;;;;8.5;7.6;;;;;;;9.98;74.17383;95586.03;;;;
2020/05/19 05:13:48;;;;;;;8.5;7.6;;;;;;;9.98;74.17383;95586.03;;;;
2020/05/19 05:14:48;;;;;;;8.5;7.6;;;;;;;9.98;74.17383;95586.03;;;;
2020/05/19 05:15:49;;;;;;;8.5;7.6;;;;;;;9.98;74.17383;95586.03;;;;
2020/05/19 05:16:49;;;;;;;8.5;7.6;;;;;;;9.98;74.17383;95586.03;;;;
2020/05/19 05:17:50;;;;;;;8.5;7.6;;;;;;;9.98;74.17383;95586.03;;;;
2020/05/19 05:18:50;;;;;;;8.5;7.6;;;;;;;9.98;74.17383;95586.03;;;;
2020/05/19 05:19:51;;;;;;;8.5;7.6;;;;;;;9.98;74.17383;95586.03;;;;
2020/05/19 05:20:51;;;;;;;8.5;7.6;;;;;;;9.98;74.17383;95586.03;;;;
2020/05/19 05:21:52;;;;;;;8.5;7.6;;;;;;;9.98;74.17383;95586.03;;;;
2020/05/19 05:22:52;;;;;;;8.5;7.6;;;;;;;9.98;74.17383;95586.03;;;;
2020/05/19 05:23:53;;;;;;;7.900001;7.1;;;;;;;10.56;73.69531;95603.39;;;;
2020/05/19 05:24:53;;;;;;;7.900001;7.1;;;;;;;10.56;73.69531;95603.39;;;;
2020/05/19 05:25:54;;;;;;;7.900001;7.1;;;;;;;10.56;73.69531;95603.39;;;;
2020/05/19 05:26:55;;;;;;;7.900001;7.1;;;;;;;10.56;73.69531;95603.39;;;;
2020/05/19 05:27:55;;;;;;;7.900001;7.1;;;;;;;10.56;73.69531;95603.39;;;;
2020/05/19 05:28:55;;;;;;;7.900001;7.1;;;;;;;10.56;73.69531;95603.39;;;;
2020/05/19 05:29:56;;;;;;;7.900001;7.1;;;;;;;10.56;73.69531;95603.39;;;;
2020/05/19 05:30:56;;;;;;;7.900001;7.1;;;;;;;10.56;73.69531;95603.39;;;;
2020/05/19 05:31:57;;;;;;;7.900001;7.1;;;;;;;10.56;73.69531;95603.39;;;;
2020/05/19 05:32:57;;;;;;;7.900001;7.1;;;;;;;10.56;73.69531;95603.39;;;;
2020/05/19 05:33:58;;;;;;;8.799998;7.6;;;;;;;11.23;73.13281;95599.52;;;;
2020/05/19 05:34:58;;;;;;;8.799998;7.6;;;;;;;11.23;73.13281;95599.52;;;;
2020/05/19 05:35:59;;;;;;;8.799998;7.6;;;;;;;11.23;73.13281;95599.52;;;;
2020/05/19 05:37:03;;;;;;;8.799998;7.6;;;;;;;11.23;73.13281;95599.52;;;;
2020/05/19 05:38:09;;;;;;;8.799998;7.6;;;;;;;11.23;73.13281;95599.52;;;;
2020/05/19 05:39:33;;;;;;;8.799998;7.6;;;;;;;11.23;73.13281;95599.52;;;;
2020/05/19 05:45:56;;;;;;;8.2;7.400001;;;;;;;11.86;72.53906;95596.59;;;;
2020/05/19 05:47:02;;;;;;;8.2;7.400001;;;;;;;11.86;72.53906;95596.59;;;;
2020/05/19 05:53:22;;;;;;;8.2;7.400001;;;;;;;11.86;72.53906;95596.59;;;;
2020/05/19 05:54:43;;;;;;;8.2;7.400001;;;;;;;11.86;72.53906;95596.59;;;;
2020/05/19 05:55:43;;;;;;;7.05;6.5;;;;;;;12.54;71.95215;95598.5;;;;
2020/05/19 05:56:43;;;;;;;7.05;6.5;;;;;;;12.54;71.95215;95598.5;;;;
2020/05/19 05:57:44;;;;;;;7.05;6.5;;;;;;;12.54;71.95215;95598.5;;;;
2020/05/19 05:58:44;;;;;;;7.05;6.5;;;;;;;12.54;71.95215;95598.5;;;;
2020/05/19 05:59:45;;;;;;;7.05;6.5;;;;;;;12.54;71.95215;95598.5;;;;
2020/05/19 06:00:45;;;;;;;7.05;6.5;;;;;;;12.54;71.95215;95598.5;;;;
2020/05/19 06:01:46;;;;;;;7.05;6.5;;;;;;;12.54;71.95215;95598.5;;;;
2020/05/19 06:02:48;;;;;;;7.05;6.5;;;;;;;12.54;71.95215;95598.5;;;;
2020/05/19 06:03:48;;;;;;;7.05;6.5;;;;;;;12.54;71.95215;95598.5;;;;
2020/05/19 06:04:49;;;;;;;7.05;6.5;;;;;;;12.54;71.95215;95598.5;;;;
2020/05/19 06:05:49;;;;;;;7.200001;6.15;;;;;;;13.18;71.28125;95605.43;;;;
2020/05/19 06:06:49;;;;;;;7.200001;6.15;;;;;;;13.18;71.28125;95605.43;;;;
2020/05/19 06:07:50;;;;;;;7.200001;6.15;;;;;;;13.18;71.28125;95605.43;;;;
2020/05/19 06:08:50;;;;;;;7.200001;6.15;;;;;;;13.18;71.28125;95605.43;;;;
2020/05/19 06:09:55;;;;;;;7.200001;6.15;;;;;;;13.18;71.28125;95605.43;;;;
2020/05/19 06:10:59;;;;;;;7.200001;6.15;;;;;;;13.18;71.28125;95605.43;;;;
2020/05/19 06:12:01;;;;;;;7.200001;6.15;;;;;;;13.18;71.28125;95605.43;;;;
2020/05/19 06:13:03;;;;;;;7.200001;6.15;;;;;;;13.18;71.28125;95605.43;;;;
2020/05/19 06:14:03;;;;;;;7.200001;6.15;;;;;;;13.18;71.28125;95605.43;;;;
2020/05/19 06:15:03;;;;;;;7.200001;6.15;;;;;;;13.18;71.28125;95605.43;;;;
2020/05/19 06:16:04;;;;;;;7.200001;6.15;;;;;;;13.18;71.28125;95605.43;;;;
2020/05/19 06:17:05;;;;;;;6.299999;5.7;;;;;;;13.93;70.44531;95591.23;;;;
2020/05/19 06:18:05;;;;;;;6.299999;5.7;;;;;;;13.93;70.44531;95591.23;;;;
2020/05/19 06:19:05;;;;;;;6.299999;5.7;;;;;;;13.93;70.44531;95591.23;;;;
2020/05/19 06:20:06;;;;;;;6.299999;5.7;;;;;;;13.93;70.44531;95591.23;;;;
2020/05/19 06:21:06;;;;;;;6.299999;5.7;;;;;;;13.93;70.44531;95591.23;;;;
2020/05/19 06:22:07;;;;;;;6.299999;5.7;;;;;;;13.93;70.44531;95591.23;;;;
2020/05/19 06:23:08;;;;;;;6.299999;5.7;;;;;;;13.93;70.44531;95591.23;;;;
2020/05/19 06:24:09;;;;;;;6.299999;5.7;;;;;;;13.93;70.44531;95591.23;;;;
2020/05/19 06:25:09;;;;;;;6.299999;5.7;;;;;;;13.93;70.44531;95591.23;;;;
2020/05/19 06:26:10;;;;;;;6.299999;5.7;;;;;;;13.93;70.44531;95591.23;;;;
2020/05/19 06:27:10;;;;;;;8.750001;5.699999;;;;;;;14.75;69.53613;95596.7;;;;
2020/05/19 06:28:10;;;;;;;8.750001;5.699999;;;;;;;14.75;69.53613;95596.7;;;;
2020/05/19 06:29:11;;;;;;;8.750001;5.699999;;;;;;;14.75;69.53613;95596.7;;;;
2020/05/19 06:30:11;;;;;;;8.750001;5.699999;;;;;;;14.75;69.53613;95596.7;;;;
2020/05/19 06:31:12;;;;;;;8.750001;5.699999;;;;;;;14.75;69.53613;95596.7;;;;
2020/05/19 06:32:12;;;;;;;8.750001;5.699999;;;;;;;14.75;69.53613;95596.7;;;;
2020/05/19 06:33:13;;;;;;;8.750001;5.699999;;;;;;;14.75;69.53613;95596.7;;;;
2020/05/19 06:34:13;;;;;;;8.750001;5.699999;;;;;;;14.75;69.53613;95596.7;;;;
2020/05/19 06:35:14;;;;;;;8.750001;5.699999;;;;;;;14.75;69.53613;95596.7;;;;
2020/05/19 06:36:14;;;;;;;8.750001;5.699999;;;;;;;14.75;69.53613;95596.7;;;;
2020/05/19 06:37:14;;;;;;;8.750001;5.699999;;;;;;;14.75;69.53613;95596.7;;;;
2020/05/19 06:38:15;;;;;;;6.4;5.350001;;;;;;;16.57;66.71484;95600.32;;;;
2020/05/19 06:39:15;;;;;;;6.4;5.350001;;;;;;;16.57;66.71484;95600.32;;;;
2020/05/19 06:40:16;;;;;;;6.4;5.350001;;;;;;;16.57;66.71484;95600.32;;;;
2020/05/19 06:41:16;;;;;;;6.4;5.350001;;;;;;;16.57;66.71484;95600.32;;;;
2020/05/19 06:42:16;;;;;;;6.4;5.350001;;;;;;;16.57;66.71484;95600.32;;;;
2020/05/19 06:43:17;;;;;;;6.4;5.350001;;;;;;;16.57;66.71484;95600.32;;;;
2020/05/19 06:44:17;;;;;;;6.4;5.350001;;;;;;;16.57;66.71484;95600.32;;;;
2020/05/19 06:45:18;;;;;;;6.4;5.350001;;;;;;;16.57;66.71484;95600.32;;;;
2020/05/19 06:46:18;;;;;;;6.4;5.350001;;;;;;;16.57;66.71484;95600.32;;;;
2020/05/19 06:47:19;;;;;;;6.4;5.350001;;;;;;;16.57;66.71484;95600.32;;;;
2020/05/19 06:48:19;;;;;;;5.65;5.15;;;;;;;18.96;63.06152;95598.95;;;;
2020/05/19 06:49:19;;;;;;;5.65;5.15;;;;;;;18.96;63.06152;95598.95;;;;
2020/05/19 06:50:20;;;;;;;5.65;5.15;;;;;;;18.96;63.06152;95598.95;;;;
2020/05/19 06:51:20;;;;;;;5.65;5.15;;;;;;;18.96;63.06152;95598.95;;;;
2020/05/19 06:52:21;;;;;;;5.65;5.15;;;;;;;18.96;63.06152;95598.95;;;;
2020/05/19 06:53:21;;;;;;;5.65;5.15;;;;;;;18.96;63.06152;95598.95;;;;
2020/05/19 06:54:22;;;;;;;5.65;5.15;;;;;;;18.96;63.06152;95598.95;;;;
2020/05/19 06:55:22;;;;;;;5.65;5.15;;;;;;;18.96;63.06152;95598.95;;;;
2020/05/19 06:56:23;;;;;;;5.65;5.15;;;;;;;18.96;63.06152;95598.95;;;;
2020/05/19 06:57:23;;;;;;;5.65;5.15;;;;;;;18.96;63.06152;95598.95;;;;
2020/05/19 06:58:24;;;;;;;5.65;5.15;;;;;;;18.96;63.06152;95598.95;;;;
2020/05/19 06:59:24;;;;;;;7;4.75;;;;;;;20.92;59.48828;95600.31;;;;
2020/05/19 07:00:24;;;;;;;7;4.75;;;;;;;20.92;59.48828;95600.31;;;;
2020/05/19 07:01:25;;;;;;;7;4.75;;;;;;;20.92;59.48828;95600.31;;;;
2020/05/19 07:02:26;;;;;;;7;4.75;;;;;;;20.92;59.48828;95600.31;;;;
2020/05/19 07:03:26;;;;;;;7;4.75;;;;;;;20.92;59.48828;95600.31;;;;
2020/05/19 07:04:26;;;;;;;7;4.75;;;;;;;20.92;59.48828;95600.31;;;;
2020/05/19 07:05:27;;;;;;;7;4.75;;;;;;;20.92;59.48828;95600.31;;;;
2020/05/19 07:06:27;;;;;;;7;4.75;;;;;;;20.92;59.48828;95600.31;;;;
2020/05/19 07:07:28;;;;;;;7;4.75;;;;;;;20.92;59.48828;95600.31;;;;
2020/05/19 07:08:28;;;;;;;7;4.75;;;;;;;20.92;59.48828;95600.31;;;;
2020/05/19 07:09:29;;;;;;;4.05;3.65;;;;;;;22.44;56.39941;95598.21;;;;
2020/05/19 07:10:29;;;;;;;4.05;3.65;;;;;;;22.44;56.39941;95598.21;;;;
2020/05/19 07:11:29;;;;;;;4.05;3.65;;;;;;;22.44;56.39941;95598.21;;;;
2020/05/19 07:12:30;;;;;;;4.05;3.65;;;;;;;22.44;56.39941;95598.21;;;;
2020/05/19 07:13:30;;;;;;;4.05;3.65;;;;;;;22.44;56.39941;95598.21;;;;
2020/05/19 07:14:31;;;;;;;4.05;3.65;;;;;;;22.44;56.39941;95598.21;;;;
2020/05/19 07:15:31;;;;;;;4.05;3.65;;;;;;;22.44;56.39941;95598.21;;;;
2020/05/19 07:16:32;;;;;;;4.05;3.65;;;;;;;22.44;56.39941;95598.21;;;;
2020/05/19 07:17:32;;;;;;;4.05;3.65;;;;;;;22.44;56.39941;95598.21;;;;
2020/05/19 07:18:33;;;;;;;4.05;3.65;;;;;;;22.44;56.39941;95598.21;;;;
2020/05/19 07:19:33;;;;;;;4.05;3.65;;;;;;;22.44;56.39941;95598.21;;;;
2020/05/19 07:20:33;;;;;;;4.1;3.55;;;;;;;23.56;53.4707;95601.65;;;;
2020/05/19 07:22:12;;;;;;;4.1;3.55;;;;;;;23.56;53.4707;95601.65;;;;
2020/05/19 07:23:19;;;;;;;4.1;3.55;;;;;;;23.56;53.4707;95601.65;;;;
2020/05/19 07:24:20;;;;;;;4.1;3.55;;;;;;;23.56;53.4707;95601.65;;;;
2020/05/19 07:25:21;;;;;;;4.1;3.55;;;;;;;23.56;53.4707;95601.65;;;;
2020/05/19 07:26:21;;;;;;;4.1;3.55;;;;;;;23.56;53.4707;95601.65;;;;
2020/05/19 07:27:22;;;;;;;4.1;3.55;;;;;;;23.56;53.4707;95601.65;;;;
2020/05/19 07:28:22;;;;;;;4.1;3.55;;;;;;;23.56;53.4707;95601.65;;;;
2020/05/19 07:29:23;;;;;;;4.1;3.55;;;;;;;23.56;53.4707;95601.65;;;;
2020/05/19 07:30:23;;;;;;;4.1;3.55;;;;;;;23.56;53.4707;95601.65;;;;
2020/05/19 07:31:24;;;;;;;4.65;3.55;;;;;;;24.27;51.54395;95593.91;;;;
2020/05/19 07:32:25;;;;;;;4.65;3.55;;;;;;;24.27;51.54395;95593.91;;;;
2020/05/19 07:33:26;;;;;;;4.65;3.55;;;;;;;24.27;51.54395;95593.91;;;;
2020/05/19 07:34:26;;;;;;;4.65;3.55;;;;;;;24.27;51.54395;95593.91;;;;
2020/05/19 07:35:27;;;;;;;4.65;3.55;;;;;;;24.27;51.54395;95593.91;;;;
2020/05/19 07:36:27;;;;;;;4.65;3.55;;;;;;;24.27;51.54395;95593.91;;;;
2020/05/19 07:37:27;;;;;;;4.65;3.55;;;;;;;24.27;51.54395;95593.91;;;;
2020/05/19 07:38:28;;;;;;;4.65;3.55;;;;;;;24.27;51.54395;95593.91;;;;
2020/05/19 07:39:28;;;;;;;4.65;3.55;;;;;;;24.27;51.54395;95593.91;;;;
2020/05/19 07:40:29;;;;;;;4.65;3.55;;;;;;;24.27;51.54395;95593.91;;;;
2020/05/19 07:41:29;;;;;;;5.15;3.7;;;;;;;24.99;49.62109;95587.17;;;;
2020/05/19 07:42:30;;;;;;;5.15;3.7;;;;;;;24.99;49.62109;95587.17;;;;
2020/05/19 07:43:30;;;;;;;5.15;3.7;;;;;;;24.99;49.62109;95587.17;;;;
2020/05/19 07:44:31;;;;;;;5.15;3.7;;;;;;;24.99;49.62109;95587.17;;;;
2020/05/19 07:45:31;;;;;;;5.15;3.7;;;;;;;24.99;49.62109;95587.17;;;;
2020/05/19 07:46:34;;;;;;;5.15;3.7;;;;;;;24.99;49.62109;95587.17;;;;
2020/05/19 07:47:35;;;;;;;5.15;3.7;;;;;;;24.99;49.62109;95587.17;;;;
2020/05/19 07:48:35;;;;;;;5.15;3.7;;;;;;;24.99;49.62109;95587.17;;;;
2020/05/19 07:49:36;;;;;;;5.15;3.7;;;;;;;24.99;49.62109;95587.17;;;;
2020/05/19 07:50:36;;;;;;;5.15;3.7;;;;;;;24.99;49.62109;95587.17;;;;
2020/05/19 07:51:39;;;;;;;5.15;3.7;;;;;;;24.99;49.62109;95587.17;;;;
2020/05/19 07:52:45;;;;;;;6;3.7;;;;;;;25.19;48.2832;95581.07;;;;
2020/05/19 07:53:45;;;;;;;6;3.7;;;;;;;25.19;48.2832;95581.07;;;;
2020/05/19 07:59:09;;;;;;;6;3.7;;;;;;;25.19;48.2832;95581.07;;;;
2020/05/19 08:05:35;;;;;;;4.6;4;;;;;;;25.41;47.33691;95576.86;;;;
2020/05/19 08:07:00;;;;;;;4.6;4;;;;;;;25.41;47.33691;95576.86;;;;
2020/05/19 08:08:04;;;;;;;4.6;4;;;;;;;25.41;47.33691;95576.86;;;;